Olga, Minnesota
Current Conditions -  °F | °C
As of 4:55 PM on Monday 24 Nov 2014 (Local Time) from KFSE Reporting Station
Light Snow Light Snow  
Wind Chill: -5°   Ceiling: 1600
Heat Index:   Visibility: 10mi
Dew Point:   Wind: 9mph
Humidity: 92%   Direction: 300°WNW
Pressure: 29.84"   Gusts: NA
Location:  47.8043°N, 95.6441°W
Report Text: KFSE 242255Z AUTO 30008KT 10SM -SN SCT011 BKN016 M13/M14 A2984 RMK AO2
Loading
Personal Weather Stations






























Interactive Weather Map New forecast layout! Learn more

10-Day Weather Forecast

Advertisements
Track Severe Weather on mobile